Time;durP1;ratioP1;P1;durP2;ratioP2;P2;SDS_P1;SDS_P2;PMS_P1;PMS_P2;Temp;Humidity;BMP_temperature;BMP_pressure;BME280_temperature;BME280_humidity;BME280_pressure;Samples;Min_cycle;Max_cycle;Signal;HPM_P1;HPM_P2
2024/01/11 00:02:21;;;;;;;0.20;0.20;;;;;;;-5.45;68.54;102726.38;4941482;28;20401;-92
2024/01/11 00:04:46;;;;;;;0.20;0.20;;;;;;;-5.51;68.86;102730.28;4925110;28;20050;-91
2024/01/11 00:07:12;;;;;;;0.20;0.20;;;;;;;-5.39;69.07;102724.16;4974031;28;20031;-91
2024/01/11 00:09:47;;;;;;;0.20;0.20;;;;;;;-5.39;69.09;102719.13;4924679;28;20035;-92
2024/01/11 00:12:12;;;;;;;0.20;0.20;;;;;;;-5.30;69.16;102719.56;4956386;28;20058;-91
2024/01/11 00:14:38;;;;;;;0.10;0.10;;;;;;;-5.29;68.85;102721.28;4941405;28;20034;-92
2024/01/11 00:17:03;;;;;;;0.20;0.20;;;;;;;-5.26;68.64;102721.44;4925617;28;20519;-91
2024/01/11 00:19:29;;;;;;;0.20;0.20;;;;;;;-5.24;68.43;102724.91;4958196;28;20027;-92
2024/01/11 00:21:55;;;;;;;0.20;0.20;;;;;;;-5.32;68.21;102706.84;4941692;28;20064;-92
2024/01/11 00:24:20;;;;;;;0.20;0.20;;;;;;;-5.37;68.76;102707.44;4956921;28;20630;-92
2024/01/11 00:26:46;;;;;;;0.10;0.10;;;;;;;-5.30;68.63;102719.56;4940169;28;20496;-91
2024/01/11 00:29:11;;;;;;;0.10;0.10;;;;;;;-5.28;68.23;102718.84;4924972;28;20420;-91
2024/01/11 00:31:38;;;;;;;0.20;0.20;;;;;;;-5.37;68.01;102722.56;4956387;28;20520;-91
2024/01/11 00:34:04;;;;;;;0.15;0.15;;;;;;;-5.41;68.01;102721.53;4941349;28;20086;-91
2024/01/11 00:36:29;;;;;;;0.20;0.20;;;;;;;-5.43;67.46;102717.22;4957064;28;20498;-91
2024/01/11 00:38:55;;;;;;;0.20;0.20;;;;;;;-5.38;67.89;102711.63;4956705;28;20037;-92
2024/01/11 00:41:20;;;;;;;0.10;0.10;;;;;;;-5.46;67.54;102707.84;4924270;28;20540;-90
2024/01/11 00:43:46;;;;;;;0.20;0.20;;;;;;;-5.40;67.63;102710.69;4956517;28;20432;-91
2024/01/11 00:46:11;;;;;;;0.20;0.20;;;;;;;-5.61;67.07;102682.72;4940633;28;20030;-91
2024/01/11 00:48:37;;;;;;;0.10;0.10;;;;;;;-5.40;67.02;102710.69;4976755;28;20042;-92
2024/01/11 00:51:06;;;;;;;0.17;0.17;;;;;;;-5.53;67.05;102709.19;4960483;28;20042;-91
2024/01/11 00:53:32;;;;;;;0.20;0.20;;;;;;;-5.56;66.83;102711.56;4960702;28;20027;-91
2024/01/11 00:55:58;;;;;;;0.20;0.20;;;;;;;-5.67;67.56;102716.88;4944162;28;20023;-92
2024/01/11 00:58:23;;;;;;;0.20;0.20;;;;;;;-5.68;67.48;102705.91;4960424;28;20038;-92
2024/01/11 01:00:49;;;;;;;0.10;0.10;;;;;;;-5.72;67.36;102700.63;4944587;28;20062;-91
2024/01/11 01:03:16;;;;;;;0.20;0.20;;;;;;;-5.77;67.63;102697.88;4977373;28;20029;-91
2024/01/11 01:05:42;;;;;;;0.10;0.10;;;;;;;-5.73;67.63;102692.19;4960009;28;20043;-92
2024/01/11 01:08:07;;;;;;;0.20;0.20;;;;;;;-5.84;67.61;102688.25;4928390;28;20097;-91
2024/01/11 01:10:33;;;;;;;0.20;0.20;;;;;;;-5.90;67.57;102680.41;4927552;28;20034;-92
2024/01/11 01:12:58;;;;;;;0.10;0.10;;;;;;;-6.02;67.59;102680.66;4959859;28;20158;-92
2024/01/11 01:15:24;;;;;;;0.10;0.10;;;;;;;-6.00;67.99;102675.69;4927805;28;20058;-93
2024/01/11 01:17:49;;;;;;;0.10;0.10;;;;;;;-6.11;67.76;102665.06;4943506;28;20031;-91
2024/01/11 01:20:15;;;;;;;0.20;0.20;;;;;;;-6.11;68.04;102668.44;4944152;28;20541;-92
2024/01/11 01:22:40;;;;;;;0.10;0.10;;;;;;;-6.16;68.11;102644.69;4944340;28;20033;-92
2024/01/11 01:25:06;;;;;;;0.20;0.20;;;;;;;-6.15;68.96;102665.72;4959258;28;20110;-91
2024/01/11 01:27:32;;;;;;;0.10;0.10;;;;;;;-6.15;68.94;102659.00;4943133;28;20121;-92
2024/01/11 01:29:57;;;;;;;0.10;0.10;;;;;;;-6.20;68.66;102667.97;4942627;28;20102;-90
2024/01/11 01:32:23;;;;;;;0.10;0.10;;;;;;;-6.36;69.58;102656.25;4943012;28;20031;-91
2024/01/11 01:34:48;;;;;;;0.10;0.10;;;;;;;-6.27;69.96;102655.00;4959063;28;20030;-91
2024/01/11 01:37:14;;;;;;;0.10;0.10;;;;;;;-6.08;69.07;102653.50;4959019;28;20041;-91
2024/01/11 01:39:40;;;;;;;0.10;0.10;;;;;;;-6.04;69.50;102648.63;4976182;28;20026;-92
2024/01/11 01:42:06;;;;;;;0.10;0.10;;;;;;;-6.08;69.33;102642.56;4943182;28;20034;-92
2024/01/11 01:44:32;;;;;;;0.10;0.10;;;;;;;-5.99;68.92;102642.16;4959151;28;20026;-92
2024/01/11 01:46:58;;;;;;;0.20;0.20;;;;;;;-5.79;68.56;102646.53;4942958;28;20520;-92
2024/01/11 01:49:23;;;;;;;0.10;0.10;;;;;;;-5.81;68.65;102638.84;4942845;28;20026;-93
2024/01/11 01:51:49;;;;;;;0.20;0.20;;;;;;;-6.01;68.74;102619.38;4942502;28;20034;-91
2024/01/11 01:54:15;;;;;;;0.20;0.20;;;;;;;-6.08;69.81;102632.50;4942480;28;20035;-91
2024/01/11 01:56:40;;;;;;;0.10;0.10;;;;;;;-6.22;70.05;102633.41;4926665;28;20038;-90
2024/01/11 01:59:06;;;;;;;0.10;0.10;;;;;;;-6.32;70.08;102631.22;4941800;28;20026;-91
2024/01/11 02:01:31;;;;;;;0.10;0.10;;;;;;;-6.31;70.11;102641.38;4958401;28;20027;-92
2024/01/11 02:03:57;;;;;;;0.20;0.20;;;;;;;-6.54;70.98;102624.19;4942015;28;20037;-92
2024/01/11 02:06:23;;;;;;;0.20;0.20;;;;;;;-6.58;72.42;102629.88;4941766;28;20097;-92
2024/01/11 02:08:49;;;;;;;0.10;0.10;;;;;;;-6.73;73.25;102622.34;4942047;28;20041;-92
2024/01/11 02:11:14;;;;;;;0.10;0.10;;;;;;;-6.60;73.61;102624.72;4926203;28;20034;-91
2024/01/11 02:13:40;;;;;;;0.10;0.10;;;;;;;-6.61;74.30;102627.16;4926481;28;20488;-92
2024/01/11 02:16:05;;;;;;;0.20;0.20;;;;;;;-6.50;74.40;102631.13;4942318;28;20035;-91
2024/01/11 02:18:31;;;;;;;0.10;0.10;;;;;;;-6.51;72.84;102609.25;4941982;28;20027;-92
2024/01/11 02:20:56;;;;;;;0.10;0.10;;;;;;;-6.43;72.51;102616.41;4941836;28;20094;-93
2024/01/11 02:23:22;;;;;;;0.20;0.20;;;;;;;-6.34;72.02;102618.53;4941452;28;20082;-90
2024/01/11 02:25:48;;;;;;;0.10;0.10;;;;;;;-6.33;70.72;102610.19;4925952;28;20027;-93
2024/01/11 02:28:14;;;;;;;0.20;0.20;;;;;;;-6.29;70.79;102607.06;4975236;28;20037;-92
2024/01/11 02:30:39;;;;;;;0.20;0.20;;;;;;;-6.23;71.06;102604.84;4958076;28;20093;-92
2024/01/11 02:33:05;;;;;;;0.20;0.20;;;;;;;-6.30;71.27;102610.34;4957857;28;20039;-91
2024/01/11 02:35:31;;;;;;;0.10;0.10;;;;;;;-6.35;71.23;102596.66;4957546;28;20041;-91
2024/01/11 02:37:56;;;;;;;0.10;0.10;;;;;;;-6.34;71.37;102610.13;4926201;28;20038;-91
2024/01/11 02:40:22;;;;;;;0.20;0.20;;;;;;;-6.37;71.42;102610.84;4942178;28;20059;-92
2024/01/11 02:42:47;;;;;;;0.20;0.20;;;;;;;-6.56;72.99;102605.63;4926187;28;20477;-92
2024/01/11 02:45:13;;;;;;;0.20;0.20;;;;;;;-6.51;74.55;102595.00;4942174;28;20406;-91
2024/01/11 02:47:39;;;;;;;0.17;0.17;;;;;;;-6.42;75.29;102595.47;4974757;28;20022;-93
2024/01/11 02:50:07;;;;;;;0.20;0.20;;;;;;;-6.43;75.80;102586.19;4957660;28;20093;-91
2024/01/11 02:52:32;;;;;;;0.20;0.20;;;;;;;-6.39;76.37;102587.22;4941558;28;20069;-90
2024/01/11 02:54:58;;;;;;;0.10;0.10;;;;;;;-6.32;76.70;102586.75;4941753;28;20039;-91
2024/01/11 02:57:23;;;;;;;0.10;0.10;;;;;;;-6.20;77.46;102577.28;4958060;28;20082;-92
2024/01/11 02:59:49;;;;;;;0.10;0.10;;;;;;;-5.97;77.61;102577.59;4926079;28;20026;-92
2024/01/11 03:02:15;;;;;;;0.20;0.20;;;;;;;-5.85;79.42;102570.59;4942102;28;20176;-93
2024/01/11 03:04:40;;;;;;;0.20;0.20;;;;;;;-5.75;79.88;102582.84;4941862;28;20513;-92
2024/01/11 03:07:06;;;;;;;0.20;0.20;;;;;;;-5.64;80.71;102570.75;4957175;28;20031;-92
2024/01/11 03:09:31;;;;;;;0.20;0.20;;;;;;;-5.59;80.38;102569.34;4941629;28;20482;-92
2024/01/11 03:11:57;;;;;;;0.10;0.10;;;;;;;-5.68;80.24;102554.63;4924686;28;20454;-92
2024/01/11 03:14:22;;;;;;;0.20;0.20;;;;;;;-5.51;79.77;102568.88;4957742;28;20039;-91
2024/01/11 03:16:48;;;;;;;0.10;0.10;;;;;;;-5.62;79.46;102559.09;4957614;28;20081;-91
2024/01/11 03:19:13;;;;;;;0.20;0.20;;;;;;;-5.51;79.11;102552.88;4941795;28;20039;-92
2024/01/11 03:21:58;;;;;;;0.20;0.20;;;;;;;-5.56;78.87;102569.47;4974293;28;20397;-91
2024/01/11 03:24:23;;;;;;;0.20;0.20;;;;;;;-5.65;78.85;102561.47;4941260;28;20034;-93
2024/01/11 03:26:49;;;;;;;0.10;0.10;;;;;;;-5.71;78.95;102562.03;4940934;28;20035;-92
2024/01/11 03:29:14;;;;;;;0.20;0.20;;;;;;;-5.81;79.51;102553.16;4941170;28;20035;-92
2024/01/11 03:31:41;;;;;;;0.10;0.10;;;;;;;-5.97;79.59;102547.34;4941034;28;20069;-91
2024/01/11 03:34:07;;;;;;;0.20;0.20;;;;;;;-6.06;80.14;102540.19;4941560;28;20038;-91
2024/01/11 03:36:33;;;;;;;0.20;0.20;;;;;;;-6.02;80.18;102531.13;4941700;28;20041;-92
2024/01/11 03:38:58;;;;;;;0.20;0.20;;;;;;;-6.01;80.23;102550.47;4957256;28;20027;-92
2024/01/11 03:41:24;;;;;;;0.20;0.20;;;;;;;-5.89;80.55;102548.56;4940927;28;20034;-92
2024/01/11 03:43:50;;;;;;;0.20;0.20;;;;;;;-5.87;80.00;102539.41;4940771;28;20038;-91
2024/01/11 03:46:15;;;;;;;0.10;0.10;;;;;;;-5.86;80.30;102531.91;4957131;28;20081;-92
2024/01/11 03:48:41;;;;;;;0.10;0.10;;;;;;;-5.74;79.95;102543.38;4956937;28;20038;-92
2024/01/11 03:51:06;;;;;;;0.20;0.20;;;;;;;-6.01;79.41;102508.50;4940526;28;20041;-92
2024/01/11 03:53:36;;;;;;;0.20;0.20;;;;;;;-5.65;79.06;102543.81;4973672;28;20030;-92
2024/01/11 03:56:02;;;;;;;0.20;0.20;;;;;;;-5.71;78.71;102533.44;4940915;28;20023;-92
2024/01/11 03:58:28;;;;;;;0.20;0.20;;;;;;;-5.74;78.34;102529.09;4940818;28;20038;-92
2024/01/11 04:00:53;;;;;;;0.20;0.20;;;;;;;-5.78;77.91;102524.72;4940626;28;20089;-92
2024/01/11 04:03:19;;;;;;;0.20;0.20;;;;;;;-5.77;78.14;102521.41;4940659;28;20073;-92
2024/01/11 04:05:44;;;;;;;0.20;0.20;;;;;;;-5.74;77.81;102526.59;4940229;28;20051;-91
2024/01/11 04:08:10;;;;;;;0.20;0.20;;;;;;;-5.64;77.66;102526.22;4942223;28;20030;-87
2024/01/11 04:10:36;;;;;;;0.20;0.20;;;;;;;-5.62;76.89;102514.56;4954695;28;20042;-86
2024/01/11 04:13:01;;;;;;;0.20;0.20;;;;;;;-5.40;77.43;102515.59;4939216;28;20109;-86
2024/01/11 04:15:27;;;;;;;0.20;0.20;;;;;;;-5.36;75.52;102512.41;4938658;28;20122;-85
2024/01/11 04:17:52;;;;;;;0.20;0.20;;;;;;;-5.43;74.39;102515.41;4923818;28;20039;-87
2024/01/11 04:20:18;;;;;;;0.20;0.20;;;;;;;-5.48;73.92;102512.69;4956138;28;20106;-92
2024/01/11 04:22:43;;;;;;;0.20;0.20;;;;;;;-5.58;73.83;102516.44;4955764;28;20037;-92
2024/01/11 04:25:09;;;;;;;0.20;0.20;;;;;;;-5.79;73.58;102510.41;4940018;28;20409;-90
2024/01/11 04:27:34;;;;;;;0.20;0.20;;;;;;;-5.80;73.33;102509.53;4939772;28;20046;-90
2024/01/11 04:30:00;;;;;;;0.10;0.10;;;;;;;-5.94;73.82;102504.63;4939978;28;20098;-92
2024/01/11 04:32:26;;;;;;;0.20;0.20;;;;;;;-6.02;74.07;102510.97;4934781;29;20114;-91
2024/01/11 04:34:51;;;;;;;0.20;0.20;;;;;;;-6.07;73.95;102516.66;4937019;29;20074;-89
2024/01/11 04:37:17;;;;;;;0.20;0.20;;;;;;;-6.21;75.03;102510.06;4903844;29;20031;-88
2024/01/11 04:39:43;;;;;;;0.20;0.20;;;;;;;-6.26;74.95;102506.47;4919619;29;20043;-89
2024/01/11 04:42:08;;;;;;;0.10;0.10;;;;;;;-6.31;75.16;102507.00;4919953;29;20032;-90
2024/01/11 04:44:34;;;;;;;0.10;0.10;;;;;;;-6.42;75.70;102488.84;4935540;29;20042;-87
2024/01/11 04:46:59;;;;;;;0.20;0.20;;;;;;;-6.36;75.79;102496.72;4934875;29;20573;-87
2024/01/11 04:49:25;;;;;;;0.20;0.20;;;;;;;-6.44;76.03;102487.91;4934987;29;20414;-87
2024/01/11 04:51:51;;;;;;;0.20;0.20;;;;;;;-6.44;76.26;102468.63;4919664;29;20031;-86
2024/01/11 04:54:16;;;;;;;0.20;0.20;;;;;;;-6.48;75.74;102454.16;4936099;29;20031;-91
2024/01/11 04:56:42;;;;;;;0.20;0.20;;;;;;;-6.19;76.08;102488.34;4951985;29;20079;-90
2024/01/11 04:59:07;;;;;;;0.20;0.20;;;;;;;-6.21;76.05;102484.00;4920172;29;20055;-93
2024/01/11 05:01:33;;;;;;;0.20;0.20;;;;;;;-6.19;75.88;102482.44;4951334;29;20035;-91
2024/01/11 05:03:58;;;;;;;0.20;0.20;;;;;;;-6.29;75.58;102455.94;4935980;29;20390;-90
2024/01/11 05:06:24;;;;;;;0.20;0.20;;;;;;;-6.13;75.90;102475.16;4935724;29;20505;-91
2024/01/11 05:08:51;;;;;;;0.20;0.20;;;;;;;-6.14;75.70;102464.22;4920043;29;20042;-90
2024/01/11 05:11:20;;;;;;;0.20;0.20;;;;;;;-6.10;75.77;102470.25;4943169;28;20053;-87
2024/01/11 05:13:47;;;;;;;0.20;0.20;;;;;;;-6.09;74.19;102460.28;4938757;28;20420;-87
2024/01/11 05:16:28;;;;;;;0.20;0.20;;;;;;;-6.26;73.96;102471.19;4937708;28;20337;-87
2024/01/11 05:18:57;;;;;;;0.20;0.20;;;;;;;-6.37;74.17;102442.97;4951239;28;20497;-84
2024/01/11 05:21:23;;;;;;;0.10;0.10;;;;;;;-6.36;73.58;102438.78;4938161;28;20042;-88
2024/01/11 05:23:48;;;;;;;0.20;0.20;;;;;;;-6.34;73.32;102456.50;4952079;28;20041;-85
2024/01/11 05:26:15;;;;;;;0.20;0.20;;;;;;;-6.42;73.47;102463.66;4951281;28;20106;-85
2024/01/11 05:28:40;;;;;;;0.10;0.10;;;;;;;-6.51;74.07;102448.09;4952896;28;20034;-84
2024/01/11 05:31:08;;;;;;;0.20;0.20;;;;;;;-6.68;73.22;102414.56;4941981;28;20062;-84
2024/01/11 05:33:34;;;;;;;0.20;0.20;;;;;;;-6.54;73.02;102438.75;4953123;28;20109;-85
2024/01/11 05:35:59;;;;;;;0.10;0.10;;;;;;;-6.43;72.90;102459.41;4924095;28;20082;-82
2024/01/11 05:38:25;;;;;;;0.20;0.20;;;;;;;-6.40;72.30;102446.97;4957126;28;20026;-86
2024/01/11 05:40:50;;;;;;;0.10;0.10;;;;;;;-6.69;72.45;102413.66;4937560;29;20038;-81
2024/01/11 05:43:16;;;;;;;0.10;0.10;;;;;;;-6.52;71.85;102442.19;4922447;28;20031;-81
2024/01/11 05:45:41;;;;;;;0.20;0.20;;;;;;;-6.49;72.22;102449.94;4940330;28;20074;-88
2024/01/11 05:48:07;;;;;;;0.20;0.20;;;;;;;-6.43;72.08;102441.78;4962686;28;20030;-86
2024/01/11 05:50:32;;;;;;;0.10;0.10;;;;;;;-6.48;71.59;102444.09;4942638;28;20034;-83
2024/01/11 05:52:58;;;;;;;0.10;0.10;;;;;;;-6.48;71.91;102445.75;4925131;28;20018;-83
2024/01/11 05:55:24;;;;;;;0.20;0.20;;;;;;;-6.59;72.05;102426.69;4957027;28;20034;-86
2024/01/11 05:57:49;;;;;;;0.10;0.10;;;;;;;-6.41;71.50;102442.72;4937693;29;20082;-92
2024/01/11 06:00:15;;;;;;;0.10;0.10;;;;;;;-6.47;71.26;102414.75;4917592;28;20054;-88
2024/01/11 06:02:40;;;;;;;0.10;0.10;;;;;;;-6.29;70.45;102428.22;4957151;28;20221;-87
2024/01/11 06:05:09;;;;;;;0.17;0.17;;;;;;;-6.49;70.28;102417.19;4953000;28;20050;-85
2024/01/11 06:07:35;;;;;;;0.10;0.10;;;;;;;-6.46;70.40;102422.38;4941486;28;20527;-83
2024/01/11 06:10:02;;;;;;;0.20;0.20;;;;;;;-6.34;69.69;102424.63;4936741;29;20039;-92
2024/01/11 06:12:28;;;;;;;0.20;0.20;;;;;;;-6.41;69.79;102425.97;4968078;28;20038;-85
2024/01/11 06:14:54;;;;;;;0.20;0.20;;;;;;;-6.36;69.36;102427.06;4957234;28;20101;-90
2024/01/11 06:17:20;;;;;;;0.10;0.10;;;;;;;-6.28;68.43;102429.97;4956385;28;20109;-87
2024/01/11 06:19:45;;;;;;;0.20;0.20;;;;;;;-6.51;67.86;102413.72;4962195;28;20039;-87
2024/01/11 06:22:11;;;;;;;0.20;0.20;;;;;;;-6.66;67.65;102436.50;4965534;28;20062;-85
2024/01/11 06:24:36;;;;;;;0.20;0.20;;;;;;;-6.99;68.23;102430.59;4955153;28;20030;-92
2024/01/11 06:27:02;;;;;;;0.20;0.20;;;;;;;-7.01;68.51;102429.66;4961112;28;20031;-92
2024/01/11 06:29:28;;;;;;;0.10;0.10;;;;;;;-7.20;68.90;102426.97;4955659;28;20031;-87
2024/01/11 06:31:53;;;;;;;0.10;0.10;;;;;;;-7.32;69.84;102426.34;4952230;28;20022;-86
2024/01/11 06:34:19;;;;;;;0.20;0.20;;;;;;;-7.33;70.46;102425.50;4940006;29;20501;-84
2024/01/11 06:36:45;;;;;;;0.10;0.10;;;;;;;-7.45;71.16;102429.88;4954944;28;20042;-90
2024/01/11 06:39:10;;;;;;;0.10;0.10;;;;;;;-7.51;71.52;102429.53;4922967;28;20065;-83
2024/01/11 06:41:36;;;;;;;0.20;0.20;;;;;;;-7.66;72.25;102428.75;4953436;28;20042;-89
2024/01/11 06:44:02;;;;;;;0.10;0.10;;;;;;;-7.61;72.28;102427.31;4945977;28;20039;-86
2024/01/11 06:46:27;;;;;;;0.20;0.20;;;;;;;-7.52;72.14;102417.75;4958261;28;20519;-82
2024/01/11 06:48:53;;;;;;;0.20;0.20;;;;;;;-7.64;72.45;102392.84;4954638;28;20082;-86
2024/01/11 06:51:22;;;;;;;0.20;0.20;;;;;;;-7.31;72.21;102421.41;4971926;28;20030;-90
2024/01/11 06:53:47;;;;;;;0.20;0.20;;;;;;;-7.18;72.09;102417.00;4936105;28;20041;-88
2024/01/11 06:56:17;;;;;;;0.10;0.10;;;;;;;-7.03;71.78;102421.19;4946735;28;20026;-82
2024/01/11 06:58:43;;;;;;;0.20;0.20;;;;;;;-6.94;71.97;102420.78;4939467;28;20027;-91
2024/01/11 07:01:08;;;;;;;0.20;0.20;;;;;;;-6.99;71.98;102381.94;4953786;28;20041;-86
2024/01/11 07:03:34;;;;;;;0.20;0.20;;;;;;;-6.61;72.05;102408.16;4954497;28;20066;-85
2024/01/11 07:06:00;;;;;;;0.10;0.10;;;;;;;-6.47;71.59;102408.06;4953614;28;20457;-86
2024/01/11 07:08:25;;;;;;;0.20;0.20;;;;;;;-6.64;71.22;102366.06;4943486;28;20042;-87
2024/01/11 07:10:51;;;;;;;0.20;0.20;;;;;;;-6.27;71.00;102398.94;4955257;28;20031;-84
2024/01/11 07:13:16;;;;;;;0.20;0.20;;;;;;;-6.20;71.00;102408.50;4938566;28;20066;-87
2024/01/11 07:15:43;;;;;;;0.10;0.10;;;;;;;-6.19;71.21;102397.66;4938993;28;20027;-86
2024/01/11 07:18:09;;;;;;;0.20;0.20;;;;;;;-6.30;71.37;102373.59;4954228;28;20152;-85
2024/01/11 07:20:34;;;;;;;0.10;0.10;;;;;;;-6.02;71.85;102400.09;4938222;28;20497;-83
2024/01/11 07:23:00;;;;;;;0.20;0.20;;;;;;;-5.92;70.88;102394.69;4954376;28;20120;-84
2024/01/11 07:25:25;;;;;;;0.20;0.20;;;;;;;-5.85;70.57;102386.59;4953552;28;20042;-83
2024/01/11 07:27:51;;;;;;;0.10;0.10;;;;;;;-5.64;70.83;102401.81;4938504;28;20043;-90
2024/01/11 07:30:18;;;;;;;0.20;0.20;;;;;;;-5.62;70.59;102403.59;4931009;28;20058;-88
2024/01/11 07:32:44;;;;;;;0.20;0.20;;;;;;;-5.60;70.56;102401.19;4938561;28;20031;-88
2024/01/11 07:35:10;;;;;;;0.20;0.20;;;;;;;-5.67;70.83;102396.66;4940653;28;20038;-91
2024/01/11 07:37:37;;;;;;;0.20;0.20;;;;;;;-5.50;71.06;102403.31;4955996;28;20035;-90
2024/01/11 07:40:03;;;;;;;0.20;0.20;;;;;;;-5.33;70.77;102386.38;4938899;28;20187;-89
2024/01/11 07:42:29;;;;;;;0.20;0.20;;;;;;;-5.23;70.39;102383.47;4940367;28;20387;-89
2024/01/11 07:44:54;;;;;;;0.20;0.20;;;;;;;-5.11;71.22;102381.50;4956528;28;20038;-90
2024/01/11 07:47:20;;;;;;;0.20;0.20;;;;;;;-4.96;70.21;102382.13;4972087;28;20061;-92
2024/01/11 07:49:46;;;;;;;0.20;0.20;;;;;;;-4.81;70.66;102383.59;4954725;28;20053;-86
2024/01/11 07:52:11;;;;;;;0.20;0.20;;;;;;;-4.63;70.31;102392.78;4943010;28;20165;-88
2024/01/11 07:54:37;;;;;;;0.20;0.20;;;;;;;-4.40;68.70;102382.75;4953826;28;20038;-84
2024/01/11 07:57:03;;;;;;;0.20;0.20;;;;;;;-4.41;68.30;102376.84;4953366;28;20030;-90
2024/01/11 07:59:33;;;;;;;0.20;0.20;;;;;;;-4.36;68.22;102360.19;4963286;28;20061;-91
2024/01/11 08:01:58;;;;;;;0.20;0.20;;;;;;;-4.10;68.21;102373.84;4938682;28;20037;-85
2024/01/11 08:04:24;;;;;;;0.20;0.20;;;;;;;-4.11;67.58;102354.44;4957428;28;20027;-84
2024/01/11 08:06:49;;;;;;;0.20;0.20;;;;;;;-3.99;67.37;102368.34;4954862;28;20031;-87
2024/01/11 08:09:15;;;;;;;0.20;0.20;;;;;;;-3.83;67.42;102356.34;4941636;28;20035;-90
2024/01/11 08:11:43;;;;;;;0.20;0.20;;;;;;;-3.92;67.97;102352.63;4953724;28;20034;-90
2024/01/11 08:14:09;;;;;;;0.20;0.20;;;;;;;-4.10;69.43;102347.72;4924272;28;20039;-91
2024/01/11 08:16:35;;;;;;;0.20;0.20;;;;;;;-4.32;71.08;102340.13;4953451;28;20035;-90
2024/01/11 08:19:01;;;;;;;0.20;0.20;;;;;;;-4.36;71.44;102351.75;4970341;28;20058;-92
2024/01/11 08:21:26;;;;;;;0.20;0.20;;;;;;;-4.25;71.82;102357.22;4925252;28;20070;-89
2024/01/11 08:23:52;;;;;;;0.10;0.10;;;;;;;-4.23;72.50;102343.84;4942417;28;20038;-85
2024/01/11 08:26:21;;;;;;;0.20;0.20;;;;;;;-4.24;71.84;102331.16;4937199;28;20030;-87
2024/01/11 08:28:47;;;;;;;0.20;0.20;;;;;;;-4.36;71.74;102331.53;4952605;28;20039;-88
2024/01/11 08:31:12;;;;;;;0.20;0.20;;;;;;;-4.31;71.91;102335.13;4937644;28;20568;-90
2024/01/11 08:33:38;;;;;;;0.10;0.10;;;;;;;-4.27;72.40;102331.03;4959098;28;20046;-88
2024/01/11 08:36:04;;;;;;;0.20;0.20;;;;;;;-4.36;72.38;102327.34;4953116;28;20509;-83
2024/01/11 08:41:14;;;;;;;0.20;0.20;;;;;;;-4.16;72.42;102329.78;4957838;28;20512;-86
2024/01/11 08:43:40;;;;;;;0.20;0.20;;;;;;;-4.26;71.40;102328.56;4954218;28;20026;-86
2024/01/11 08:46:05;;;;;;;0.20;0.20;;;;;;;-4.04;72.05;102322.66;4937138;28;20074;-87
2024/01/11 08:48:31;;;;;;;0.20;0.20;;;;;;;-3.93;71.80;102323.94;4952576;28;20033;-91
2024/01/11 08:50:56;;;;;;;0.20;0.20;;;;;;;-3.81;71.92;102316.81;4953992;28;20041;-92
2024/01/11 08:53:22;;;;;;;0.20;0.20;;;;;;;-3.87;70.75;102303.91;4937891;28;20042;-87
2024/01/11 08:55:47;;;;;;;0.10;0.10;;;;;;;-4.05;70.96;102285.53;4953165;28;20026;-83
2024/01/11 08:58:13;;;;;;;0.20;0.20;;;;;;;-3.81;70.93;102299.09;4952853;28;20038;-84
2024/01/11 09:00:39;;;;;;;0.20;0.20;;;;;;;-3.85;69.86;102309.03;4918075;28;20162;-84
2024/01/11 09:03:04;;;;;;;0.20;0.20;;;;;;;-3.71;71.01;102301.97;4951918;28;20039;-90
2024/01/11 09:05:30;;;;;;;0.20;0.20;;;;;;;-3.86;71.48;102282.88;4940181;28;20125;-86
2024/01/11 09:07:55;;;;;;;0.20;0.20;;;;;;;-3.54;72.33;102280.63;4936515;28;20030;-88
2024/01/11 09:10:22;;;;;;;0.20;0.20;;;;;;;-3.54;71.34;102267.97;4949432;28;20050;-91
2024/01/11 09:12:48;;;;;;;0.20;0.20;;;;;;;-3.48;70.93;102291.84;4953119;28;20509;-90
2024/01/11 09:15:13;;;;;;;0.20;0.20;;;;;;;-3.51;70.97;102293.41;4942087;28;20038;-92
2024/01/11 09:17:40;;;;;;;0.20;0.20;;;;;;;-3.43;70.88;102273.44;4980693;28;20487;-90
2024/01/11 09:20:06;;;;;;;0.20;0.20;;;;;;;-3.54;70.81;102270.50;4949719;28;20125;-91
2024/01/11 09:22:31;;;;;;;0.20;0.20;;;;;;;-3.53;71.13;102273.13;4969743;28;20030;-87
2024/01/11 09:24:57;;;;;;;0.20;0.20;;;;;;;-3.51;70.96;102253.78;4977984;28;20061;-90
2024/01/11 09:27:22;;;;;;;0.20;0.20;;;;;;;-3.49;71.20;102258.91;4956361;28;20401;-91
2024/01/11 09:29:48;;;;;;;0.10;0.10;;;;;;;-3.52;71.08;102244.47;4968529;28;20049;-91
2024/01/11 09:32:13;;;;;;;0.20;0.20;;;;;;;-3.45;71.79;102235.41;4933521;28;20089;-92
2024/01/11 09:34:39;;;;;;;0.10;0.10;;;;;;;-3.33;71.59;102219.81;4976126;28;20027;-86
2024/01/11 09:37:05;;;;;;;0.20;0.20;;;;;;;-3.31;71.53;102213.97;4939581;28;20039;-87
2024/01/11 09:39:30;;;;;;;0.20;0.20;;;;;;;-3.03;72.05;102209.81;4976835;28;21381;-90
2024/01/11 09:42:11;;;;;;;0.20;0.20;;;;;;;-3.01;71.30;102198.06;4957422;28;20497;-88
2024/01/11 09:44:38;;;;;;;0.20;0.20;;;;;;;-2.92;71.66;102190.75;4960318;28;20062;-91
2024/01/11 09:47:06;;;;;;;0.10;0.10;;;;;;;-2.70;72.12;102193.13;4941564;28;20034;-87
2024/01/11 09:49:31;;;;;;;0.10;0.10;;;;;;;-2.65;71.54;102176.41;4941567;28;20031;-90
2024/01/11 09:51:57;;;;;;;0.20;0.20;;;;;;;-2.70;72.24;102156.81;4974106;28;20527;-89
2024/01/11 09:54:23;;;;;;;0.20;0.20;;;;;;;-2.47;72.30;102167.59;4957571;28;20030;-83
2024/01/11 09:56:50;;;;;;;0.20;0.20;;;;;;;-2.16;71.60;102171.88;4967658;28;20034;-91
2024/01/11 09:59:22;;;;;;;0.20;0.20;;;;;;;-2.11;71.12;102177.94;4943892;28;20043;-89
2024/01/11 10:01:47;;;;;;;0.20;0.20;;;;;;;-1.86;71.53;102165.09;4950168;28;20489;-91
2024/01/11 10:04:13;;;;;;;0.20;0.20;;;;;;;-1.88;70.53;102166.72;4957722;28;20042;-87
2024/01/11 10:06:38;;;;;;;0.20;0.20;;;;;;;-1.95;70.43;102154.72;4958442;28;20039;-86
2024/01/11 10:09:04;;;;;;;0.20;0.20;;;;;;;-2.02;71.29;102141.00;4955623;28;20043;-83
2024/01/11 10:11:30;;;;;;;0.20;0.20;;;;;;;-2.09;71.28;102101.06;4954861;28;20512;-82
2024/01/11 10:14:00;;;;;;;0.20;0.20;;;;;;;-1.90;70.54;102120.16;4955212;28;20034;-84
2024/01/11 10:16:25;;;;;;;0.20;0.20;;;;;;;-1.60;70.67;102117.53;4972936;28;20108;-82
2024/01/11 10:18:53;;;;;;;0.20;0.20;;;;;;;-1.04;73.29;102145.97;4955286;28;20479;-83
2024/01/11 10:21:19;;;;;;;0.20;0.20;;;;;;;-0.83;71.70;102134.56;4952895;28;20042;-84
2024/01/11 10:23:44;;;;;;;0.20;0.20;;;;;;;-0.44;69.33;102143.03;4973661;28;20556;-87
2024/01/11 10:26:10;;;;;;;0.20;0.20;;;;;;;-0.12;66.95;102119.91;4972442;28;20445;-88
2024/01/11 10:28:37;;;;;;;0.20;0.20;;;;;;;-0.19;66.88;102118.09;4955593;28;20417;-91
2024/01/11 10:31:06;;;;;;;0.20;0.20;;;;;;;-0.26;67.16;102119.66;4972288;28;20031;-81
2024/01/11 10:33:33;;;;;;;0.20;0.20;;;;;;;-0.36;67.73;102110.13;4955743;28;20030;-82
2024/01/11 10:35:58;;;;;;;0.20;0.20;;;;;;;-0.39;68.62;102112.63;4937846;28;20031;-89
2024/01/11 10:38:24;;;;;;;0.20;0.20;;;;;;;-0.48;68.31;102092.97;4938699;28;20069;-90
2024/01/11 10:40:49;;;;;;;0.10;0.10;;;;;;;-0.22;67.97;102105.31;4955468;28;20023;-83
2024/01/11 10:43:17;;;;;;;0.20;0.20;;;;;;;-0.33;68.48;102072.91;4961340;28;20034;-87
2024/01/11 10:45:43;;;;;;;0.20;0.20;;;;;;;0.00;67.85;102066.72;4955494;28;20120;-88
2024/01/11 10:48:15;;;;;;;0.20;0.20;;;;;;;0.04;67.90;102062.53;4955241;28;20493;-86
2024/01/11 10:50:45;;;;;;;0.20;0.20;;;;;;;0.13;68.13;102070.34;4970749;28;20030;-86
2024/01/11 10:53:36;;;;;;;0.10;0.10;;;;;;;0.36;68.21;102065.59;4938976;28;21062;-87
2024/01/11 10:56:02;;;;;;;0.20;0.20;;;;;;;0.52;68.01;102073.53;4957053;28;20023;-88
2024/01/11 10:58:28;;;;;;;0.20;0.20;;;;;;;0.57;67.72;102051.50;4962717;28;20625;-87
2024/01/11 11:00:56;;;;;;;0.20;0.20;;;;;;;0.96;67.44;102059.69;4954801;28;20030;-85
2024/01/11 11:03:23;;;;;;;0.20;0.20;;;;;;;1.16;66.30;102035.31;4939527;28;20803;-86
2024/01/11 11:05:50;;;;;;;0.20;0.20;;;;;;;1.57;64.12;102043.44;4937739;28;20057;-90
2024/01/11 11:08:15;;;;;;;0.20;0.20;;;;;;;1.33;58.59;101993.03;4939191;28;20030;-89
2024/01/11 11:10:41;;;;;;;0.20;0.20;;;;;;;1.93;59.61;102035.31;4941571;28;20106;-87
2024/01/11 11:13:08;;;;;;;0.20;0.20;;;;;;;2.05;57.45;102028.59;4954801;28;20093;-89
2024/01/11 11:15:33;;;;;;;0.20;0.20;;;;;;;2.30;58.74;102022.84;4923886;28;20042;-82
2024/01/11 11:18:00;;;;;;;0.20;0.20;;;;;;;2.28;57.01;102016.88;4935827;29;20031;-83
2024/01/11 11:20:27;;;;;;;0.20;0.20;;;;;;;2.37;57.55;102011.84;4938079;28;20038;-88
2024/01/11 11:23:06;;;;;;;0.10;0.10;;;;;;;2.61;57.40;102000.06;4955188;28;20500;-91
2024/01/11 11:25:31;;;;;;;0.20;0.20;;;;;;;2.62;55.03;102001.75;4939046;28;20110;-85